Latest Weather Observations for Century Mine

IDQ60801

Issued at 3:35 pm EST Friday 22 August 2014 (issued every 30 minutes, with the page automatically refreshed every 10 minutes)

About weather observations | Map of weather stations | Latest weather observations for QLD | Other Formats
Station Details ID: 029167 Name: CENTURY MINE Lat: -18.76 Lon: 138.71 Height: 126.8 m
Data from the previous 72 hours. | See also: Recent months at Century Mine
Date/Time
EST
Temp
°C
App
Temp
°C
Dew
Point
Rel
Hum
%
Delta-T
°C
Wind Press
QNH
hPa
Press
MSL
hPa
Rain
since 9 am
mm
Dir
 
Spd
km/h
Gust
km/h
Spd
kts
Gust
kts
22/03:30pm 30.1 26.0 -6.2 9 15.7 N 7 15 4 8 1014.0 1013.5 0.0
22/03:00pm 29.9 26.0 -5.0 10 15.3 NE 7 11 4 6 1014.4 1013.9 0.0
22/02:30pm 30.0 26.4 -3.6 11 15.2 WSW 6 13 3 7 1014.7 1014.2 0.0
22/02:00pm 29.5 25.9 -4.0 11 14.9 SW 6 13 3 7 1015.1 1014.6 0.0
22/01:30pm 29.6 25.4 -3.9 11 15.0 NNW 9 17 5 9 1015.6 1015.1 0.0
22/01:00pm 28.4 24.1 -4.9 11 14.5 ENE 9 15 5 8 1016.3 1015.8 0.0
22/12:30pm 27.5 23.2 -4.4 12 13.9 S 9 19 5 10 1016.8 1016.4 0.0
22/12:00pm 27.6 23.2 -2.3 14 13.5 SE 11 24 6 13 1017.4 1017.0 0.0
22/11:30am 26.9 22.1 -2.8 14 13.3 S 13 20 7 11 1017.9 1017.5 0.0
22/11:00am 25.2 20.3 -3.2 15 12.4 S 13 20 7 11 1018.5 1018.1 0.0
22/10:30am 24.3 19.2 -2.3 17 11.7 S 15 20 8 11 1018.7 1018.3 0.0
22/10:00am 23.3 19.0 -1.6 19 11.0 S 11 19 6 10 1019.1 1018.7 0.0
22/09:30am 21.6 16.9 -1.6 21 10.1 S 13 24 7 13 1019.1 1018.7 0.0
22/09:00am 19.9 15.2 -1.8 23 9.3 S 13 20 7 11 1019.1 1018.7 0.0
22/08:30am 18.5 13.3 -2.4 24 8.7 S 15 22 8 12 1019.0 1018.6 0.0
22/08:00am 17.0 13.0 -2.1 27 7.9 S 9 17 5 9 1018.9 1018.5 0.0
22/07:30am 15.9 11.1 -2.6 28 7.5 S 13 20 7 11 1018.6 1018.2 0.0
22/07:00am 15.8 11.0 -2.2 29 7.3 S 13 24 7 13 1018.3 1017.9 0.0
22/06:30am 15.8 11.0 -2.6 28 7.5 S 13 19 7 10 1017.8 1017.4 0.0
22/06:00am 15.4 10.9 -3.0 28 7.3 S 11 17 6 9 1017.5 1017.1 0.0
22/05:30am 15.4 10.5 -3.5 27 7.5 S 13 20 7 11 1017.2 1016.8 0.0
22/05:00am 15.3 10.8 -3.6 27 7.4 S 11 17 6 9 1017.0 1016.6 0.0
22/04:30am 15.0 10.4 -3.8 27 7.4 S 11 13 6 7 1016.9 1016.5 0.0
22/04:00am 14.9 10.6 -4.4 26 7.4 S 9 13 5 7 1016.9 1016.5 0.0
22/03:30am 14.7 10.8 -4.6 26 7.4 S 7 11 4 6 1017.0 1016.6 0.0
22/03:00am 15.4 11.1 -5.0 24 7.8 S 9 13 5 7 1017.2 1016.8 0.0
22/02:30am 16.2 11.6 -4.4 24 8.1 S 11 15 6 8 1017.4 1017.0 0.0
22/02:00am 15.8 11.5 -4.7 24 7.9 S 9 13 5 7 1017.4 1017.0 0.0
22/01:30am 15.6 12.6 -5.4 23 8.0 S 2 7 1 4 1017.5 1017.1 0.0
22/01:00am 17.1 12.4 -5.4 21 8.7 S 11 13 6 7 1017.6 1017.2 0.0
22/12:30am 17.7 13.0 -5.5 20 9.0 S 11 17 6 9 1017.7 1017.3 0.0
22/12:00am 18.1 13.3 -5.9 19 9.3 S 11 17 6 9 1017.6 1017.2 0.0
 
Date/Time
EST
Temp
°C
App
Temp
°C
Dew
Point
Rel
Hum
%
Delta-T
°C
Wind Press
QNH
hPa
Press
MSL
hPa
Rain
since 9 am
mm
Dir
 
Spd
km/h
Gust
km/h
Spd
kts
Gust
kts
21/11:30pm 18.0 13.2 -5.9 19 9.2 S 11 17 6 9 1017.5 1017.1 0.0
21/11:00pm 18.3 13.5 -6.4 18 9.5 S 11 17 6 9 1017.4 1017.0 0.0
21/10:30pm 18.7 13.8 -6.8 17 9.7 SSW 11 13 6 7 1017.3 1016.9 0.0
21/10:00pm 17.4 13.1 -5.1 21 8.8 SSW 9 11 5 6 1017.2 1016.8 0.0
21/09:30pm 14.1 10.2 -5.1 26 7.2 SW 7 9 4 5 1017.2 1016.8 0.0
21/09:00pm 15.1 11.1 -5.9 23 7.8 SSW 7 9 4 5 1017.1 1016.7 0.0
21/08:30pm 16.9 12.4 -6.8 19 8.9 WSW 9 11 5 6 1016.6 1016.1 0.0
21/08:00pm 18.2 13.7 -6.5 18 9.4 SW 9 11 5 6 1016.4 1015.9 0.0
21/07:30pm 18.1 13.5 -8.1 16 9.7 WSW 9 11 5 6 1016.0 1015.5 0.0
21/07:00pm 20.1 15.9 -8.2 14 10.7 SW 7 7 4 4 1015.8 1015.3 0.0
21/06:30pm 23.3 19.1 -7.7 12 12.2 SSW 7 9 4 5 1015.4 1014.9 0.0
21/06:00pm 25.3 21.1 -7.2 11 13.2 S 7 13 4 7 1015.2 1014.7 0.0
21/05:30pm 26.1 21.5 -7.9 10 13.7 S 9 19 5 10 1015.0 1014.5 0.0
21/05:00pm 26.6 22.0 -7.5 10 13.9 S 9 20 5 11 1014.8 1014.3 0.0
21/04:30pm 26.4 21.1 -7.6 10 13.8 SSW 13 24 7 13 1014.6 1014.1 0.0
21/04:00pm 26.2 22.1 -6.5 11 13.5 SSW 7 20 4 11 1014.7 1014.2 0.0
21/03:30pm 27.1 23.1 -5.9 11 13.9 S 7 15 4 8 1014.7 1014.2 0.0
21/03:00pm 26.8 21.6 -6.1 11 13.8 SSW 13 20 7 11 1014.8 1014.3 0.0
21/02:30pm 25.9 19.9 -6.8 11 13.4 SSW 17 26 9 14 1015.1 1014.6 0.0
21/02:00pm 25.9 19.9 -6.8 11 13.4 SE 17 26 9 14 1015.4 1014.9 0.0
21/01:30pm 26.1 21.0 -5.5 12 13.3 SW 13 24 7 13 1015.9 1015.4 0.0
21/01:00pm 25.3 20.1 -6.1 12 13.0 S 13 20 7 11 1016.5 1016.0 0.0
21/12:30pm 25.7 20.9 -5.8 12 13.2 SSE 11 22 6 12 1016.9 1016.5 0.0
21/12:00pm 24.7 19.5 -6.6 12 12.7 SSE 13 22 7 12 1017.5 1017.1 0.0
21/11:30am 24.9 19.8 -5.4 13 12.7 ESE 13 22 7 12 1018.1 1017.7 0.0
21/11:00am 23.8 18.7 -5.3 14 12.0 SSE 13 24 7 13 1018.6 1018.2 0.0
21/10:30am 22.4 17.3 -5.5 15 11.4 SE 13 19 7 10 1019.0 1018.6 0.0
21/10:00am 20.4 15.4 -4.7 18 10.2 S 13 19 7 10 1019.1 1018.7 0.0
21/09:30am 19.3 13.9 -4.9 19 9.7 S 15 20 8 11 1019.0 1018.6 0.0
21/09:00am 17.9 12.8 -5.3 20 9.0 SSE 13 20 7 11 1018.9 1018.5 0.0
21/08:30am 17.0 12.3 -4.8 22 8.5 S 11 20 6 11 1018.5 1018.1 0.0
21/08:00am 15.6 11.9 -4.3 25 7.7 S 6 11 3 6 1018.4 1018.0 0.0
21/07:30am 13.9 9.6 -4.8 27 7.1 S 9 15 5 8 1018.2 1017.8 0.0
21/07:00am 12.5 9.1 -5.5 28 6.6 SSE 4 9 2 5 1017.9 1017.5 0.0
21/06:30am 13.8 10.0 -5.3 26 7.1 SSE 6 11 3 6 1017.6 1017.2 0.0
21/06:00am 14.7 10.0 -5.1 25 7.5 S 11 19 6 10 1017.4 1017.0 0.0
21/05:30am 14.8 10.5 -5.0 25 7.5 S 9 17 5 9 1017.3 1016.9 0.0
21/05:00am 14.9 10.2 -5.5 24 7.7 S 11 20 6 11 1017.2 1016.8 0.0
21/04:30am 15.0 9.9 -5.4 24 7.7 S 13 17 7 9 1017.1 1016.7 0.0
21/04:00am 15.3 10.6 -5.1 24 7.8 S 11 19 6 10 1017.3 1016.9 0.0
21/03:30am 15.4 10.7 -5.0 24 7.8 S 11 17 6 9 1017.2 1016.8 0.0
21/03:00am 15.7 11.0 -5.3 23 8.0 S 11 15 6 8 1017.4 1017.0 0.0
21/02:30am 16.5 11.4 -5.3 22 8.4 S 13 20 7 11 1017.4 1017.0 0.0
21/02:00am 16.4 11.7 -4.8 23 8.2 S 11 19 6 10 1017.6 1017.2 0.0
21/01:30am 16.8 12.2 -4.4 23 8.3 S 11 19 6 10 1017.8 1017.4 0.0
21/01:00am 17.2 12.2 -4.7 22 8.6 S 13 19 7 10 1017.9 1017.5 0.0
21/12:30am 17.4 12.4 -4.5 22 8.7 SSW 13 20 7 11 1018.1 1017.7 0.0
21/12:00am 17.5 12.9 -4.4 22 8.7 SSW 11 17 6 9 1018.0 1017.6 0.0
 
Date/Time
EST
Temp
°C
App
Temp
°C
Dew
Point
Rel
Hum
%
Delta-T
°C
Wind Press
QNH
hPa
Press
MSL
hPa
Rain
since 9 am
mm
Dir
 
Spd
km/h
Gust
km/h
Spd
kts
Gust
kts
20/11:30pm 18.2 13.6 -3.8 22 8.9 S 11 17 6 9 1017.8 1017.4 0.0
20/11:00pm 18.7 13.7 -4.0 21 9.2 S 13 20 7 11 1017.7 1017.3 0.0
20/10:30pm 19.6 14.3 -3.9 20 9.6 SSW 15 20 8 11 1017.5 1017.1 0.0
20/10:00pm 19.9 14.9 -4.4 19 9.9 SSW 13 19 7 10 1017.5 1017.1 0.0
20/09:30pm 19.9 15.0 -3.7 20 9.7 SSW 13 19 7 10 1017.5 1017.1 0.0
20/09:00pm 19.4 14.9 -3.5 21 9.4 SSW 11 13 6 7 1017.2 1016.8 0.0
20/08:30pm 17.7 13.7 -2.0 26 8.2 SW 9 11 5 6 1016.9 1016.5 0.0
20/08:00pm 17.3 13.5 -4.0 23 8.5 SW 7 9 4 5 1016.6 1016.1 0.0
20/07:30pm 18.2 14.3 -4.5 21 9.0 WSW 7 9 4 5 1016.1 1015.6 0.0
20/07:00pm 21.0 17.1 -5.0 17 10.5 SSW 7 9 4 5 1015.7 1015.2 0.0
20/06:30pm 23.2 18.9 -4.8 15 11.7 SSW 9 11 5 6 1015.4 1014.9 0.0
20/06:00pm 25.3 20.7 -4.1 14 12.6 SSW 11 17 6 9 1015.3 1014.8 0.0
20/05:30pm 25.4 20.7 -5.0 13 12.9 SW 11 20 6 11 1014.9 1014.4 0.0
20/05:00pm 26.2 21.1 -5.4 12 13.4 SW 13 20 7 11 1014.8 1014.3 0.0
20/04:30pm 26.5 21.4 -5.2 12 13.5 SW 13 20 7 11 1014.6 1014.1 0.0
20/04:00pm 26.7 21.7 -4.0 13 13.4 SSW 13 20 7 11 1014.6 1014.1 0.0
20/03:30pm 26.8 22.2 -3.9 13 13.4 SW 11 20 6 11 1014.7 1014.2 0.0
20/03:00pm 26.1 21.7 -5.5 12 13.3 S 9 17 5 9 1015.2 1014.7 0.0
20/02:30pm 26.6 21.6 -4.0 13 13.3 S 13 20 7 11 1015.5 1015.0 0.0
20/02:00pm 26.6 22.4 -4.0 13 13.3 S 9 17 5 9 1016.1 1015.6 0.0
20/01:30pm 25.8 20.8 -4.7 13 13.0 S 13 20 7 11 1016.6 1016.1 0.0
20/01:00pm 26.3 21.3 -4.3 13 13.2 S 13 20 7 11 1017.2 1016.8 0.0
20/12:30pm 24.3 19.2 -4.9 14 12.3 SSE 13 26 7 14 1017.7 1017.3 0.0
20/12:00pm 24.7 20.0 -4.6 14 12.4 SE 11 20 6 11 1018.1 1017.7 0.0
20/11:30am 24.1 19.4 -5.0 14 12.2 SSE 11 20 6 11 1018.6 1018.2 0.0
20/11:00am 23.4 18.4 -4.7 15 11.7 SSE 13 20 7 11 1018.9 1018.5 0.0
20/10:30am 22.4 17.4 -4.6 16 11.2 SE 13 22 7 12 1019.2 1018.8 0.0
20/10:00am 20.3 15.4 -3.4 20 9.8 S 13 19 7 10 1019.5 1019.1 0.0
20/09:30am 18.9 13.6 -3.3 22 9.1 S 15 22 8 12 1019.6 1019.2 0.0
20/09:00am 18.1 13.7 -2.8 24 8.6 S 11 19 6 10 1019.4 1019.0 0.0
20/08:30am 16.1 12.1 -2.4 28 7.5 S 9 17 5 9 1019.2 1018.8 0.0
20/08:00am 14.5 10.1 -2.4 31 6.8 S 11 15 6 8 1018.7 1018.3 0.0
20/07:30am 13.0 9.0 -2.5 34 6.1 S 9 15 5 8 1018.7 1018.3 0.0
20/07:00am 12.4 8.4 -2.6 35 5.8 SSW 9 13 5 7 1018.3 1017.9 0.0
20/06:30am 12.9 8.5 -2.6 34 6.1 SSW 11 15 6 8 1018.1 1017.7 0.0
20/06:00am 12.8 8.5 -1.9 36 5.8 SSW 11 13 6 7 1017.8 1017.4 0.0
20/05:30am 12.5 8.5 -2.5 35 5.9 SSW 9 11 5 6 1017.6 1017.2 0.0
20/05:00am 13.3 9.3 -2.6 33 6.3 S 9 13 5 7 1017.3 1016.9 0.0
20/04:30am 13.7 10.0 -2.7 32 6.5 S 7 13 4 7 1017.2 1016.8 0.0
20/04:00am 14.3 10.3 -2.6 31 6.7 SSW 9 13 5 7 1017.0 1016.6 0.0
20/03:30am 14.9 10.5 -2.5 30 7.0 S 11 15 6 8 1016.9 1016.5 0.0
20/03:00am 15.0 11.0 -2.0 31 6.9 SSW 9 15 5 8 1016.9 1016.5 0.0
20/02:30am 14.5 10.5 -2.4 31 6.8 S 9 11 5 6 1016.9 1016.5 0.0
20/02:00am 14.6 10.6 -2.3 31 6.8 S 9 11 5 6 1017.1 1016.7 0.0
20/01:30am 13.9 10.0 -1.3 35 6.2 SSW 9 11 5 6 1017.3 1016.9 0.0
20/01:00am 12.0 8.6 -0.8 41 5.2 SW 7 9 4 5 1017.5 1017.1 0.0
20/12:30am 11.6 8.2 -0.9 42 5.0 SSW 7 9 4 5 1017.5 1017.1 0.0
20/12:00am 12.9 9.2 0.0 41 5.4 SW 9 11 5 6 1017.6 1017.2 0.0
 
Date/Time
EST
Temp
°C
App
Temp
°C
Dew
Point
Rel
Hum
%
Delta-T
°C
Wind Press
QNH
hPa
Press
MSL
hPa
Rain
since 9 am
mm
Dir
 
Spd
km/h
Gust
km/h
Spd
kts
Gust
kts
19/11:30pm 11.6 7.7 -1.2 41 5.1 S 9 9 5 5 1017.4 1017.0 0.0
19/11:00pm 12.1 8.7 -1.8 38 5.5 SSE 6 9 3 5 1017.4 1017.0 0.0
19/10:30pm 13.3 9.7 -1.8 35 6.1 SSW 7 9 4 5 1017.6 1017.2 0.0
19/10:00pm 13.7 10.1 -1.9 34 6.3 SSW 7 9 4 5 1017.6 1017.2 0.0
19/09:30pm 14.3 11.3 -2.2 32 6.6 WSW 4 7 2 4 1017.4 1017.0 0.0
19/09:00pm 15.5 12.5 -2.0 30 7.1 E 4 7 2 4 1017.2 1016.8 0.0
19/08:30pm 17.6 14.1 -1.1 28 8.0 E 7 9 4 5 1016.8 1016.4 0.0
19/08:00pm 17.8 14.4 -1.9 26 8.2 SSW 6 7 3 4 1016.5 1016.0 0.0
19/07:30pm 20.2 16.7 -1.6 23 9.4 S 7 11 4 6 1016.1 1015.6 0.0
19/07:00pm 21.2 17.7 -1.3 22 9.8 SSW 7 11 4 6 1015.8 1015.3 0.0
19/06:30pm 23.0 19.4 -1.8 19 10.9 S 7 11 4 6 1015.6 1015.1 0.0
19/06:00pm 24.7 20.4 -2.0 17 11.9 SE 11 15 6 8 1015.4 1014.9 0.0
19/05:30pm 25.2 20.5 -1.6 17 12.1 SSE 13 26 7 14 1015.4 1014.9 0.0
19/05:00pm 25.7 21.5 -1.2 17 12.2 SE 11 20 6 11 1015.4 1014.9 0.0
19/04:30pm 26.0 21.7 -1.7 16 12.5 SSE 11 24 6 13 1015.4 1014.9 0.0
19/04:00pm 26.9 22.3 -1.0 16 12.9 SSE 13 24 7 13 1015.6 1015.1 0.0

Other Formats:

Comma delimited format used in spreadsheet applications
http://www.bom.gov.au/fwo/IDQ60801/IDQ60801.94261.axf

JavaScript Object Notation format (JSON) in row-major order
http://www.bom.gov.au/fwo/IDQ60801/IDQ60801.94261.json